Time;durP1;ratioP1;P1;durP2;ratioP2;P2;SDS_P1;SDS_P2;PMS_P1;PMS_P2;Temp;Humidity;BMP_temperature;BMP_pressure;BME280_temperature;BME280_humidity;BME280_pressure;Samples;Min_cycle;Max_cycle;Signal;HPM_P1;HPM_P2
2022/07/25 00:02:18;;;;;;;12.75;11.63;;;;;;;;;;4969187;28;20189;-67
2022/07/25 00:04:43;;;;;;;12.77;11.68;;;;;;;;;;4970584;28;20067;-68
2022/07/25 00:07:09;;;;;;;13.27;11.98;;;;;;;;;;4971247;28;20038;-68
2022/07/25 00:09:35;;;;;;;12.55;11.45;;;;;;;;;;4972782;28;20397;-67
2022/07/25 00:12:00;;;;;;;13.52;12.23;;;;;;;;;;4968885;28;20457;-68
2022/07/25 00:14:26;;;;;;;12.88;11.55;;;;;;;;;;4970301;28;20034;-67
2022/07/25 00:16:52;;;;;;;13.57;11.45;;;;;;;;;;4971000;28;20048;-67
2022/07/25 00:19:18;;;;;;;11.95;10.85;;;;;;;;;;4970043;28;20030;-68
2022/07/25 00:21:44;;;;;;;12.23;11.23;;;;;;;;;;4970383;28;20637;-70
2022/07/25 00:24:10;;;;;;;13.45;11.80;;;;;;;;;;4963561;28;20089;-69
2022/07/25 00:26:35;;;;;;;13.20;12.00;;;;;;;;;;4964973;28;20034;-68
2022/07/25 00:29:01;;;;;;;12.77;11.60;;;;;;;;;;4965156;28;20057;-69
2022/07/25 00:31:26;;;;;;;13.00;11.70;;;;;;;;;;4968089;28;20042;-69
2022/07/25 00:33:52;;;;;;;12.55;11.35;;;;;;;;;;4965564;28;20054;-68
2022/07/25 00:36:18;;;;;;;13.32;11.95;;;;;;;;;;4965290;28;20050;-68
2022/07/25 00:38:43;;;;;;;13.13;11.90;;;;;;;;;;4969965;28;20034;-70
2022/07/25 00:41:09;;;;;;;12.65;11.43;;;;;;;;;;4962707;28;20134;-70
2022/07/25 00:43:35;;;;;;;12.73;11.43;;;;;;;;;;4962489;28;20045;-70
2022/07/25 00:46:01;;;;;;;12.40;11.20;;;;;;;;;;4966597;28;20047;-70
2022/07/25 00:48:27;;;;;;;12.98;11.77;;;;;;;;;;4969261;28;20070;-70
2022/07/25 00:50:54;;;;;;;13.55;12.23;;;;;;;;;;4961609;28;20642;-70
2022/07/25 00:53:21;;;;;;;12.52;11.43;;;;;;;;;;4964220;28;20043;-69
2022/07/25 00:55:47;;;;;;;13.25;12.00;;;;;;;;;;4964562;28;20050;-69
2022/07/25 00:58:12;;;;;;;13.30;12.00;;;;;;;;;;4964639;28;20097;-69
2022/07/25 01:00:38;;;;;;;12.55;11.45;;;;;;;;;;4965948;28;20402;-70
2022/07/25 01:03:04;;;;;;;14.02;12.63;;;;;;;;;;4967268;28;20070;-70
2022/07/25 01:05:30;;;;;;;12.35;11.25;;;;;;;;;;4967184;28;20058;-69
2022/07/25 01:07:57;;;;;;;13.57;10.82;;;;;;;;;;4964976;28;20068;-70
2022/07/25 01:10:22;;;;;;;14.25;12.27;;;;;;;;;;4959220;28;20035;-69
2022/07/25 01:12:53;;;;;;;13.35;11.95;;;;;;;;;;4965494;28;20097;-70
2022/07/25 01:15:21;;;;;;;14.68;12.48;;;;;;;;;;4968580;28;20026;-69
2022/07/25 01:17:48;;;;;;;13.80;12.47;;;;;;;;;;4964219;28;20136;-70
2022/07/25 01:20:18;;;;;;;15.38;12.65;;;;;;;;;;4964127;28;20113;-70
2022/07/25 01:22:44;;;;;;;14.13;12.63;;;;;;;;;;4964135;28;20509;-70
2022/07/25 01:25:11;;;;;;;13.90;12.52;;;;;;;;;;4963118;28;20034;-70
2022/07/25 01:27:37;;;;;;;14.68;13.27;;;;;;;;;;4963639;28;20544;-69
2022/07/25 01:30:05;;;;;;;14.23;12.88;;;;;;;;;;4962660;28;20038;-69
2022/07/25 01:32:30;;;;;;;15.07;13.70;;;;;;;;;;4963561;28;20094;-69
2022/07/25 01:34:56;;;;;;;14.93;13.52;;;;;;;;;;4964997;28;20038;-69
2022/07/25 01:37:21;;;;;;;15.82;14.20;;;;;;;;;;4962565;28;20044;-67
2022/07/25 01:39:47;;;;;;;17.13;13.77;;;;;;;;;;4963817;28;20149;-67
2022/07/25 01:42:13;;;;;;;14.82;13.43;;;;;;;;;;4963293;28;20074;-67
2022/07/25 01:44:38;;;;;;;16.25;14.75;;;;;;;;;;4962696;28;20045;-68
2022/07/25 01:47:04;;;;;;;16.20;14.70;;;;;;;;;;4963957;28;20034;-67
2022/07/25 01:49:30;;;;;;;15.40;14.05;;;;;;;;;;4962733;28;20687;-68
2022/07/25 01:51:55;;;;;;;15.73;14.13;;;;;;;;;;4963128;28;20795;-68
2022/07/25 01:54:21;;;;;;;15.75;14.13;;;;;;;;;;4962099;28;20102;-68
2022/07/25 01:56:46;;;;;;;19.27;14.38;;;;;;;;;;4963199;28;20038;-67
2022/07/25 01:59:12;;;;;;;16.00;14.50;;;;;;;;;;4962823;28;20379;-68
2022/07/25 02:01:37;;;;;;;17.80;14.23;;;;;;;;;;4963985;28;20038;-68
2022/07/25 02:04:03;;;;;;;15.60;14.10;;;;;;;;;;4964582;28;20647;-68
2022/07/25 02:06:29;;;;;;;15.80;14.13;;;;;;;;;;4965356;28;20039;-68
2022/07/25 02:08:54;;;;;;;15.30;13.73;;;;;;;;;;4977452;28;20109;-68
2022/07/25 02:11:20;;;;;;;17.35;14.70;;;;;;;;;;4962740;28;20035;-66
2022/07/25 02:13:46;;;;;;;14.38;13.00;;;;;;;;;;4965714;28;20030;-66
2022/07/25 02:16:12;;;;;;;15.32;13.85;;;;;;;;;;4964227;28;20034;-66
2022/07/25 02:18:38;;;;;;;15.68;14.18;;;;;;;;;;4965998;28;20065;-66
2022/07/25 02:21:08;;;;;;;16.88;14.27;;;;;;;;;;4963421;28;20034;-66
2022/07/25 02:23:34;;;;;;;17.10;14.88;;;;;;;;;;4965032;28;20075;-66
2022/07/25 02:26:00;;;;;;;16.50;14.27;;;;;;;;;;4964057;28;20414;-66
2022/07/25 02:28:25;;;;;;;17.92;14.13;;;;;;;;;;4963679;28;20035;-66
2022/07/25 02:30:51;;;;;;;16.20;14.13;;;;;;;;;;4965883;28;20662;-66
2022/07/25 02:33:17;;;;;;;19.95;15.05;;;;;;;;;;4965989;28;20039;-66
2022/07/25 02:35:42;;;;;;;15.52;13.73;;;;;;;;;;4965522;28;20046;-66
2022/07/25 02:38:08;;;;;;;17.95;14.48;;;;;;;;;;4949933;28;21351;-67
2022/07/25 02:40:34;;;;;;;17.48;14.88;;;;;;;;;;4961937;28;20030;-66
2022/07/25 02:42:59;;;;;;;15.77;14.20;;;;;;;;;;4963330;28;20041;-66
2022/07/25 02:45:25;;;;;;;17.58;14.60;;;;;;;;;;4962617;28;20387;-66
2022/07/25 02:47:50;;;;;;;15.13;13.73;;;;;;;;;;4962150;28;20629;-65
2022/07/25 02:50:16;;;;;;;15.30;13.73;;;;;;;;;;4965409;28;20090;-64
2022/07/25 02:52:42;;;;;;;16.10;14.60;;;;;;;;;;4963336;28;20051;-64
2022/07/25 02:55:09;;;;;;;15.38;13.85;;;;;;;;;;4968722;28;20110;-64
2022/07/25 02:57:34;;;;;;;15.80;14.38;;;;;;;;;;4965164;28;20077;-64
2022/07/25 03:00:00;;;;;;;16.48;14.88;;;;;;;;;;4967604;28;20058;-64
2022/07/25 03:02:26;;;;;;;16.15;14.07;;;;;;;;;;4963581;28;20109;-64
2022/07/25 03:04:51;;;;;;;15.75;14.35;;;;;;;;;;4962825;28;20062;-64
2022/07/25 03:07:17;;;;;;;15.88;14.23;;;;;;;;;;4965010;28;20038;-64
2022/07/25 03:09:42;;;;;;;18.13;14.85;;;;;;;;;;4964782;28;20516;-64
2022/07/25 03:12:08;;;;;;;17.05;14.88;;;;;;;;;;4965340;28;20803;-64
2022/07/25 03:14:34;;;;;;;15.73;14.02;;;;;;;;;;4963639;28;20043;-66
2022/07/25 03:16:59;;;;;;;16.10;14.55;;;;;;;;;;4963702;28;20039;-65
2022/07/25 03:19:25;;;;;;;15.90;14.35;;;;;;;;;;4961220;28;20039;-65
2022/07/25 03:21:50;;;;;;;15.88;14.30;;;;;;;;;;4962616;28;20043;-65
2022/07/25 03:24:17;;;;;;;16.02;14.40;;;;;;;;;;4959843;28;20046;-65
2022/07/25 03:26:43;;;;;;;16.63;15.00;;;;;;;;;;4962277;28;20041;-65
2022/07/25 03:29:09;;;;;;;16.45;14.75;;;;;;;;;;4964751;28;20026;-65
2022/07/25 03:31:34;;;;;;;16.70;15.10;;;;;;;;;;4962333;28;20043;-65
2022/07/25 03:34:00;;;;;;;16.98;15.20;;;;;;;;;;4966728;28;20046;-66
2022/07/25 03:36:25;;;;;;;16.85;15.25;;;;;;;;;;4962234;28;20038;-66
2022/07/25 03:38:51;;;;;;;17.15;15.55;;;;;;;;;;4960961;28;20364;-67
2022/07/25 03:41:17;;;;;;;16.98;15.18;;;;;;;;;;4960829;28;20153;-67
2022/07/25 03:43:43;;;;;;;17.42;14.93;;;;;;;;;;4956840;28;20051;-67
2022/07/25 03:46:08;;;;;;;17.20;15.48;;;;;;;;;;4964157;28;20073;-67
2022/07/25 03:48:34;;;;;;;17.77;16.02;;;;;;;;;;4965419;28;20034;-65
2022/07/25 03:50:59;;;;;;;16.75;15.13;;;;;;;;;;4965387;28;20042;-65
2022/07/25 03:53:25;;;;;;;16.27;14.68;;;;;;;;;;4958790;28;20039;-65
2022/07/25 03:55:51;;;;;;;16.83;15.07;;;;;;;;;;4963331;28;20035;-66
2022/07/25 03:58:16;;;;;;;17.35;15.43;;;;;;;;;;4959834;28;20093;-65
2022/07/25 04:00:42;;;;;;;17.77;15.88;;;;;;;;;;4965830;28;20049;-65
2022/07/25 04:03:07;;;;;;;17.33;15.52;;;;;;;;;;4959231;28;20382;-65
2022/07/25 04:05:33;;;;;;;16.75;15.25;;;;;;;;;;4962641;28;20035;-65
2022/07/25 04:07:59;;;;;;;19.15;15.27;;;;;;;;;;4960997;28;20265;-66
2022/07/25 04:10:24;;;;;;;17.27;15.63;;;;;;;;;;4969382;28;20034;-66
2022/07/25 04:12:50;;;;;;;18.05;16.23;;;;;;;;;;4964121;28;20069;-66
2022/07/25 04:15:16;;;;;;;17.13;15.32;;;;;;;;;;4962005;28;20052;-65
2022/07/25 04:17:41;;;;;;;17.60;15.80;;;;;;;;;;4964443;28;20039;-66
2022/07/25 04:20:07;;;;;;;17.27;15.40;;;;;;;;;;4958291;28;20051;-66
2022/07/25 04:22:34;;;;;;;17.05;15.32;;;;;;;;;;4962300;28;20156;-66
2022/07/25 04:25:00;;;;;;;18.05;16.17;;;;;;;;;;4961088;28;20125;-65
2022/07/25 04:27:26;;;;;;;16.88;15.07;;;;;;;;;;4963087;28;20038;-66
2022/07/25 04:29:51;;;;;;;16.55;14.73;;;;;;;;;;4965406;28;20062;-66
2022/07/25 04:32:18;;;;;;;16.85;14.32;;;;;;;;;;4961977;28;20030;-66
2022/07/25 04:34:43;;;;;;;16.15;14.60;;;;;;;;;;4961595;28;20039;-65
2022/07/25 04:37:09;;;;;;;15.48;13.52;;;;;;;;;;4956159;28;20027;-65
2022/07/25 04:39:34;;;;;;;15.07;13.55;;;;;;;;;;4959452;28;20039;-65
2022/07/25 04:42:00;;;;;;;15.32;13.75;;;;;;;;;;4961216;28;20034;-65
2022/07/25 04:44:26;;;;;;;14.43;13.10;;;;;;;;;;4960810;28;20039;-65
2022/07/25 04:46:51;;;;;;;15.85;13.73;;;;;;;;;;4964490;28;20043;-66
2022/07/25 04:49:17;;;;;;;14.20;12.85;;;;;;;;;;4962100;28;20019;-65
2022/07/25 04:51:42;;;;;;;16.40;13.27;;;;;;;;;;4964431;28;20050;-65
2022/07/25 04:54:08;;;;;;;15.30;13.65;;;;;;;;;;4964346;28;20550;-65
2022/07/25 04:56:34;;;;;;;15.05;13.57;;;;;;;;;;4962071;28;20399;-65
2022/07/25 04:58:59;;;;;;;14.80;13.40;;;;;;;;;;4964770;28;20047;-65
2022/07/25 05:01:25;;;;;;;15.52;13.75;;;;;;;;;;4968729;28;20390;-65
2022/07/25 05:03:51;;;;;;;16.05;13.50;;;;;;;;;;4963302;28;20043;-66
2022/07/25 05:06:18;;;;;;;15.23;13.73;;;;;;;;;;4965004;28;20054;-65
2022/07/25 05:08:43;;;;;;;15.13;13.82;;;;;;;;;;4965312;28;20130;-65
2022/07/25 05:11:09;;;;;;;18.23;13.88;;;;;;;;;;4962634;28;20038;-65
2022/07/25 05:13:35;;;;;;;14.38;12.98;;;;;;;;;;4963327;28;20517;-65
2022/07/25 05:16:01;;;;;;;15.85;14.25;;;;;;;;;;4964429;28;20053;-65
2022/07/25 05:18:27;;;;;;;16.13;14.45;;;;;;;;;;4967102;28;20142;-66
2022/07/25 05:20:53;;;;;;;15.55;13.50;;;;;;;;;;4962700;28;20538;-66
2022/07/25 05:23:18;;;;;;;14.52;13.00;;;;;;;;;;4963204;28;20034;-66
2022/07/25 05:25:44;;;;;;;13.27;12.00;;;;;;;;;;4963120;28;20066;-66
2022/07/25 05:28:10;;;;;;;15.15;11.90;;;;;;;;;;4964782;28;20039;-66
2022/07/25 05:30:35;;;;;;;16.30;13.88;;;;;;;;;;4963638;28;20086;-66
2022/07/25 05:33:01;;;;;;;14.32;13.05;;;;;;;;;;4966172;28;20038;-66
2022/07/25 05:35:27;;;;;;;14.35;13.13;;;;;;;;;;4965013;28;20085;-65
2022/07/25 05:37:52;;;;;;;14.77;13.02;;;;;;;;;;4964802;28;20125;-66
2022/07/25 05:40:18;;;;;;;14.05;12.68;;;;;;;;;;4964169;28;20030;-65
2022/07/25 05:42:44;;;;;;;13.82;12.48;;;;;;;;;;4964213;28;20077;-65
2022/07/25 05:45:10;;;;;;;14.77;13.30;;;;;;;;;;4964854;28;20062;-66
2022/07/25 05:47:35;;;;;;;14.55;13.07;;;;;;;;;;4965056;28;20039;-65
2022/07/25 05:50:01;;;;;;;13.57;12.35;;;;;;;;;;4964109;28;20058;-66
2022/07/25 05:52:27;;;;;;;13.10;11.88;;;;;;;;;;4968841;28;20045;-66
2022/07/25 05:54:53;;;;;;;14.10;12.80;;;;;;;;;;4963860;28;20280;-66
2022/07/25 05:57:18;;;;;;;13.40;12.27;;;;;;;;;;4969539;28;20035;-66
2022/07/25 05:59:44;;;;;;;14.13;12.93;;;;;;;;;;4964024;28;20118;-66
2022/07/25 06:02:09;;;;;;;14.23;12.45;;;;;;;;;;4960468;28;20030;-65
2022/07/25 06:04:35;;;;;;;14.07;12.70;;;;;;;;;;4966896;28;20081;-65
2022/07/25 06:07:01;;;;;;;13.65;12.25;;;;;;;;;;4963385;28;20074;-65
2022/07/25 06:09:27;;;;;;;15.30;12.75;;;;;;;;;;4964232;28;20046;-66
2022/07/25 06:11:52;;;;;;;13.35;12.05;;;;;;;;;;4963147;28;20134;-65
2022/07/25 06:14:18;;;;;;;13.93;12.63;;;;;;;;;;4963508;28;20034;-66
2022/07/25 06:16:43;;;;;;;12.95;11.65;;;;;;;;;;4966308;28;20313;-65
2022/07/25 06:19:09;;;;;;;12.35;10.88;;;;;;;;;;4964683;28;20038;-66
2022/07/25 06:21:35;;;;;;;12.27;11.00;;;;;;;;;;4961555;28;20140;-66
2022/07/25 06:24:01;;;;;;;12.27;11.02;;;;;;;;;;4968147;28;20053;-66
2022/07/25 06:26:27;;;;;;;13.23;11.20;;;;;;;;;;4970216;28;20042;-65
2022/07/25 06:28:52;;;;;;;15.05;12.13;;;;;;;;;;4968509;28;20187;-66
2022/07/25 06:31:18;;;;;;;13.48;11.43;;;;;;;;;;4969032;28;20116;-66
2022/07/25 06:33:44;;;;;;;15.52;12.13;;;;;;;;;;4966510;28;20031;-65
2022/07/25 06:36:09;;;;;;;15.65;11.90;;;;;;;;;;4968532;28;20379;-66
2022/07/25 06:38:35;;;;;;;15.07;12.13;;;;;;;;;;4969275;28;20086;-66
2022/07/25 06:41:01;;;;;;;12.27;11.07;;;;;;;;;;4968423;28;20114;-66
2022/07/25 06:43:27;;;;;;;13.45;11.73;;;;;;;;;;4964872;28;20035;-66
2022/07/25 06:45:53;;;;;;;12.13;10.90;;;;;;;;;;4968704;28;20038;-66
2022/07/25 06:48:19;;;;;;;12.13;10.93;;;;;;;;;;4967709;28;20088;-66
2022/07/25 06:50:45;;;;;;;11.60;10.50;;;;;;;;;;4967622;28;20043;-66
2022/07/25 06:53:10;;;;;;;12.75;11.45;;;;;;;;;;4965328;28;20043;-66
2022/07/25 06:55:36;;;;;;;12.60;11.40;;;;;;;;;;4970671;28;20034;-66
2022/07/25 06:58:02;;;;;;;13.48;10.98;;;;;;;;;;4969490;28;20039;-66
2022/07/25 07:00:28;;;;;;;12.25;10.77;;;;;;;;;;4966161;28;20026;-66
2022/07/25 07:02:57;;;;;;;13.15;11.13;;;;;;;;;;4967690;28;20117;-66
2022/07/25 07:05:23;;;;;;;11.48;10.43;;;;;;;;;;4965511;28;20520;-66
2022/07/25 07:07:49;;;;;;;12.73;10.82;;;;;;;;;;4966822;28;20035;-66
2022/07/25 07:10:15;;;;;;;13.25;10.77;;;;;;;;;;4966154;28;20046;-66
2022/07/25 07:12:41;;;;;;;12.02;10.82;;;;;;;;;;4967529;28;20053;-66
2022/07/25 07:15:07;;;;;;;12.55;10.85;;;;;;;;;;4968624;28;20038;-66
2022/07/25 07:17:32;;;;;;;15.48;10.98;;;;;;;;;;4967345;28;20185;-66
2022/07/25 07:19:58;;;;;;;12.43;10.90;;;;;;;;;;4971894;28;20041;-66
2022/07/25 07:22:24;;;;;;;12.02;11.02;;;;;;;;;;4967047;28;20117;-66
2022/07/25 07:24:49;;;;;;;11.10;10.10;;;;;;;;;;4964489;28;20046;-66
2022/07/25 07:27:15;;;;;;;11.95;10.88;;;;;;;;;;4969961;28;20034;-66
2022/07/25 07:29:40;;;;;;;12.15;11.05;;;;;;;;;;4963513;28;20504;-66
2022/07/25 07:32:06;;;;;;;13.50;10.68;;;;;;;;;;4970044;28;20330;-66
2022/07/25 07:34:32;;;;;;;11.95;10.55;;;;;;;;;;4965040;28;20693;-66
2022/07/25 07:36:57;;;;;;;11.73;10.60;;;;;;;;;;4967210;28;20046;-66
2022/07/25 07:39:23;;;;;;;12.43;11.13;;;;;;;;;;4969162;28;20038;-67
2022/07/25 07:41:48;;;;;;;11.82;10.77;;;;;;;;;;4966886;28;20027;-67
2022/07/25 07:44:15;;;;;;;11.77;10.75;;;;;;;;;;4963140;28;20158;-67
2022/07/25 07:46:40;;;;;;;12.45;11.35;;;;;;;;;;4969397;28;20034;-67
2022/07/25 07:49:06;;;;;;;15.98;11.30;;;;;;;;;;4971850;28;20034;-66
2022/07/25 07:51:31;;;;;;;11.52;10.32;;;;;;;;;;4970619;28;20043;-66
2022/07/25 07:56:41;;;;;;;11.45;10.43;;;;;;;;;;4966591;28;20129;-67
2022/07/25 07:59:07;;;;;;;15.60;10.80;;;;;;;;;;4967020;28;20121;-67
2022/07/25 08:01:33;;;;;;;14.23;10.43;;;;;;;;;;4965664;28;20468;-67
2022/07/25 08:03:59;;;;;;;11.00;9.90;;;;;;;;;;4969079;28;20516;-66
2022/07/25 08:06:26;;;;;;;11.00;9.93;;;;;;;;;;4966564;28;20038;-67
2022/07/25 08:08:52;;;;;;;11.33;10.33;;;;;;;;;;4966124;28;20114;-67
2022/07/25 08:11:18;;;;;;;13.65;9.80;;;;;;;;;;4964542;28;20413;-67
2022/07/25 08:13:44;;;;;;;10.63;9.73;;;;;;;;;;4962858;28;20046;-67
2022/07/25 08:16:10;;;;;;;10.32;9.43;;;;;;;;;;4965811;28;20046;-66
2022/07/25 08:18:36;;;;;;;11.18;10.07;;;;;;;;;;4963752;28;20093;-66
2022/07/25 08:21:04;;;;;;;11.20;10.02;;;;;;;;;;4965797;28;20030;-66
2022/07/25 08:23:32;;;;;;;;;;;;;;;;;;4965346;28;20038;-67
2022/07/25 08:25:58;;;;;;;10.48;9.23;;;;;;;;;;4963373;28;20242;-67
2022/07/25 08:28:23;;;;;;;10.52;9.63;;;;;;;;;;4967251;28;20152;-66
2022/07/25 08:30:49;;;;;;;10.82;9.82;;;;;;;;;;4963941;28;20066;-66
2022/07/25 08:33:15;;;;;;;12.88;9.95;;;;;;;;;;4961663;28;20038;-66
2022/07/25 08:36:03;;;;;;;12.13;9.77;;;;;;;;;;4962917;28;20482;-67
2022/07/25 08:38:28;;;;;;;10.27;9.25;;;;;;;;;;4962476;28;20030;-66
2022/07/25 08:40:55;;;;;;;9.93;9.13;;;;;;;;;;4965269;28;20038;-67
2022/07/25 08:43:21;;;;;;;10.55;9.25;;;;;;;;;;4965094;28;20034;-67
2022/07/25 08:45:49;;;;;;;11.18;10.07;;;;;;;;;;4968945;28;20049;-67
2022/07/25 08:48:22;;;;;;;10.68;9.40;;;;;;;;;;4966561;28;20076;-67
2022/07/25 08:50:49;;;;;;;10.25;8.82;;;;;;;;;;4961275;28;20094;-66
2022/07/25 08:53:17;;;;;;;10.57;9.63;;;;;;;;;;4962619;28;20038;-67
2022/07/25 08:55:44;;;;;;;10.57;9.57;;;;;;;;;;4965562;28;20042;-67
2022/07/25 08:58:11;;;;;;;10.10;9.20;;;;;;;;;;4964030;28;20048;-67
2022/07/25 09:00:38;;;;;;;10.93;9.30;;;;;;;;;;4962456;28;20030;-67
2022/07/25 09:03:05;;;;;;;10.27;9.38;;;;;;;;;;4966476;28;20042;-67
2022/07/25 09:05:32;;;;;;;11.45;10.23;;;;;;;;;;4965705;28;20562;-67
2022/07/25 09:08:08;;;;;;;12.30;9.82;;;;;;;;;;4965630;28;20035;-67
2022/07/25 09:10:35;;;;;;;9.95;9.07;;;;;;;;;;4962059;28;20038;-67
2022/07/25 09:13:09;;;;;;;12.02;9.70;;;;;;;;;;4955516;28;20049;-67
2022/07/25 09:15:50;;;;;;;10.07;8.98;;;;;;;;;;4968381;28;20033;-67
2022/07/25 09:18:22;;;;;;;9.30;8.50;;;;;;;;;;4964537;28;20089;-67
2022/07/25 09:20:50;;;;;;;10.43;9.00;;;;;;;;;;4958052;28;20518;-65
2022/07/25 09:23:35;;;;;;;8.73;8.07;;;;;;;;;;4967593;28;20426;-66
2022/07/25 09:26:11;;;;;;;9.40;8.55;;;;;;;;;;4967186;28;20081;-66
2022/07/25 09:28:46;;;;;;;8.85;8.02;;;;;;;;;;4963633;28;20504;-66
2022/07/25 09:31:14;;;;;;;8.85;7.95;;;;;;;;;;4964225;28;20529;-66
2022/07/25 09:33:55;;;;;;;9.63;8.80;;;;;;;;;;4964500;28;20066;-66
2022/07/25 09:36:21;;;;;;;9.15;8.27;;;;;;;;;;4965367;28;20191;-66
2022/07/25 09:38:59;;;;;;;9.13;8.32;;;;;;;;;;4963256;28;20042;-66
2022/07/25 09:41:36;;;;;;;8.85;8.00;;;;;;;;;;4964494;28;20039;-66
2022/07/25 09:44:02;;;;;;;9.52;8.63;;;;;;;;;;4964386;28;20121;-66
2022/07/25 09:46:31;;;;;;;8.77;8.02;;;;;;;;;;4962839;28;20045;-65
2022/07/25 09:48:59;;;;;;;8.98;8.07;;;;;;;;;;4965476;28;20038;-66
2022/07/25 09:51:25;;;;;;;9.30;8.40;;;;;;;;;;4959074;28;20049;-66
2022/07/25 09:53:51;;;;;;;9.40;8.50;;;;;;;;;;4963911;28;20038;-66
2022/07/25 09:56:17;;;;;;;9.30;8.48;;;;;;;;;;4963239;28;20105;-66
2022/07/25 09:58:42;;;;;;;9.30;8.45;;;;;;;;;;4962438;28;20442;-66
2022/07/25 10:01:08;;;;;;;9.55;8.60;;;;;;;;;;4963053;28;20082;-66
2022/07/25 10:03:51;;;;;;;9.82;8.18;;;;;;;;;;4964563;28;20042;-66
2022/07/25 10:06:23;;;;;;;9.18;8.30;;;;;;;;;;4969414;28;20046;-66
2022/07/25 10:08:50;;;;;;;9.23;8.43;;;;;;;;;;4961934;28;20081;-66
2022/07/25 10:11:24;;;;;;;9.75;8.85;;;;;;;;;;4962539;28;20692;-66
2022/07/25 10:13:51;;;;;;;9.52;8.60;;;;;;;;;;4964099;28;20177;-66
2022/07/25 10:16:19;;;;;;;9.27;8.43;;;;;;;;;;4965632;28;20034;-66
2022/07/25 10:18:51;;;;;;;13.43;8.82;;;;;;;;;;4957158;28;20166;-66
2022/07/25 10:21:18;;;;;;;9.32;8.07;;;;;;;;;;4960017;28;20070;-66
2022/07/25 10:23:45;;;;;;;9.75;8.75;;;;;;;;;;4963757;28;20039;-66
2022/07/25 10:26:15;;;;;;;11.05;8.40;;;;;;;;;;4963672;28;20075;-66
2022/07/25 10:28:47;;;;;;;8.65;7.95;;;;;;;;;;4961349;28;20105;-66
2022/07/25 10:31:17;;;;;;;9.63;8.63;;;;;;;;;;4961817;28;20513;-66
2022/07/25 10:33:45;;;;;;;9.10;8.30;;;;;;;;;;4961831;28;20113;-66
2022/07/25 10:36:11;;;;;;;10.90;8.32;;;;;;;;;;4960654;28;20039;-66
2022/07/25 10:38:41;;;;;;;8.93;8.18;;;;;;;;;;4961904;28;20042;-66
2022/07/25 10:41:09;;;;;;;8.63;7.85;;;;;;;;;;4962324;28;20050;-66
2022/07/25 10:43:39;;;;;;;8.90;8.00;;;;;;;;;;4960616;28;20129;-66
2022/07/25 10:46:22;;;;;;;9.38;8.50;;;;;;;;;;4961336;28;20046;-66
2022/07/25 10:49:06;;;;;;;8.95;8.07;;;;;;;;;;4972673;28;20085;-66
2022/07/25 10:51:34;;;;;;;9.10;8.30;;;;;;;;;;4960045;28;20554;-66
2022/07/25 10:53:59;;;;;;;;;;;;;;;;;;4962927;28;20116;-66
2022/07/25 10:56:27;;;;;;;9.65;8.75;;;;;;;;;;4962136;28;20342;-66
2022/07/25 10:58:54;;;;;;;;;;;;;;;;;;4962115;28;20045;-66
2022/07/25 11:01:31;;;;;;;9.15;8.30;;;;;;;;;;4960718;28;19928;-65
2022/07/25 11:04:13;;;;;;;9.05;8.30;;;;;;;;;;4962218;28;20042;-65
2022/07/25 11:06:40;;;;;;;8.80;8.10;;;;;;;;;;4961486;28;20035;-65
2022/07/25 11:09:16;;;;;;;10.87;8.00;;;;;;;;;;4959776;28;20038;-66
2022/07/25 11:11:48;;;;;;;9.25;8.10;;;;;;;;;;4961193;28;20049;-66
2022/07/25 11:14:34;;;;;;;9.85;8.57;;;;;;;;;;4961843;28;20034;-66
2022/07/25 11:17:08;;;;;;;11.27;7.78;;;;;;;;;;4965257;28;20038;-65
2022/07/25 11:19:34;;;;;;;8.55;7.95;;;;;;;;;;4964790;28;20557;-65
2022/07/25 11:22:03;;;;;;;8.70;7.55;;;;;;;;;;4963029;28;20042;-66
2022/07/25 11:24:37;;;;;;;8.88;7.97;;;;;;;;;;4963447;28;20046;-66
2022/07/25 11:27:03;;;;;;;8.60;7.80;;;;;;;;;;4967557;28;20482;-65
2022/07/25 11:29:29;;;;;;;8.98;8.15;;;;;;;;;;4955884;28;20141;-65
2022/07/25 11:31:57;;;;;;;8.43;7.72;;;;;;;;;;4968993;28;20045;-66
2022/07/25 11:34:28;;;;;;;9.32;8.35;;;;;;;;;;4969718;28;20534;-66
2022/07/25 11:36:56;;;;;;;8.80;8.00;;;;;;;;;;4969982;28;20045;-66
2022/07/25 11:39:24;;;;;;;8.10;7.45;;;;;;;;;;4967388;28;20030;-65
2022/07/25 11:42:15;;;;;;;9.25;7.90;;;;;;;;;;4958830;28;20126;-66
2022/07/25 11:44:49;;;;;;;7.85;7.25;;;;;;;;;;4963864;28;20047;-66
2022/07/25 11:47:25;;;;;;;6.93;6.22;;;;;;;;;;4967162;28;20038;-66
2022/07/25 11:49:53;;;;;;;8.40;7.63;;;;;;;;;;4962732;28;20039;-65
2022/07/25 11:52:22;;;;;;;7.65;6.90;;;;;;;;;;4968516;28;20063;-65
2022/07/25 11:54:53;;;;;;;8.00;6.70;;;;;;;;;;4963189;28;20168;-66
2022/07/25 11:57:23;;;;;;;6.70;6.10;;;;;;;;;;4963870;28;20046;-65
2022/07/25 11:59:49;;;;;;;9.15;8.32;;;;;;;;;;4962706;28;20031;-65
2022/07/25 12:02:24;;;;;;;9.60;8.70;;;;;;;;;;4963631;28;20030;-65
2022/07/25 12:05:07;;;;;;;9.50;8.75;;;;;;;;;;4963414;28;20050;-67
2022/07/25 12:07:43;;;;;;;9.75;8.95;;;;;;;;;;4961702;28;20096;-67
2022/07/25 12:10:18;;;;;;;10.02;9.10;;;;;;;;;;4963261;28;20038;-68
2022/07/25 12:12:54;;;;;;;9.77;8.98;;;;;;;;;;4963242;28;20042;-67
2022/07/25 12:15:25;;;;;;;10.45;9.55;;;;;;;;;;4963558;28;20038;-67
2022/07/25 12:17:52;;;;;;;8.57;7.78;;;;;;;;;;4961032;28;20106;-66
2022/07/25 12:20:30;;;;;;;8.63;7.93;;;;;;;;;;4962847;28;20095;-66
2022/07/25 12:22:59;;;;;;;13.85;8.63;;;;;;;;;;4962154;28;20286;-66
2022/07/25 12:25:24;;;;;;;8.98;8.25;;;;;;;;;;4962239;28;20570;-66
2022/07/25 12:27:51;;;;;;;7.32;6.82;;;;;;;;;;4961349;28;20122;-66
2022/07/25 12:30:17;;;;;;;7.35;6.85;;;;;;;;;;4961984;28;20388;-66
2022/07/25 12:32:43;;;;;;;8.60;7.82;;;;;;;;;;4962201;28;20085;-66
2022/07/25 12:35:10;;;;;;;10.77;8.82;;;;;;;;;;4963082;28;20130;-66
2022/07/25 12:37:36;;;;;;;9.80;9.00;;;;;;;;;;4962801;28;20058;-66
2022/07/25 12:40:04;;;;;;;9.75;8.75;;;;;;;;;;4961991;28;20041;-66
2022/07/25 12:42:30;;;;;;;11.13;9.18;;;;;;;;;;4962041;28;20049;-66
2022/07/25 12:44:56;;;;;;;9.68;8.65;;;;;;;;;;4962607;28;20046;-66
2022/07/25 12:47:23;;;;;;;11.45;9.05;;;;;;;;;;4962734;28;20055;-66
2022/07/25 12:49:49;;;;;;;9.68;8.65;;;;;;;;;;4960425;28;20486;-66
2022/07/25 12:52:15;;;;;;;9.05;8.25;;;;;;;;;;4961366;28;20038;-65
2022/07/25 12:54:41;;;;;;;11.30;8.40;;;;;;;;;;4964626;28;20030;-67
2022/07/25 12:57:06;;;;;;;13.45;8.32;;;;;;;;;;4959097;28;20049;-67
2022/07/25 12:59:32;;;;;;;8.95;8.25;;;;;;;;;;4964258;28;20475;-66
2022/07/25 13:01:58;;;;;;;8.43;7.72;;;;;;;;;;4962036;28;20045;-66
2022/07/25 13:04:27;;;;;;;8.77;7.97;;;;;;;;;;4960008;28;20039;-66
2022/07/25 13:06:57;;;;;;;8.65;7.95;;;;;;;;;;4964944;28;20109;-66
2022/07/25 13:09:23;;;;;;;10.60;8.15;;;;;;;;;;4964108;28;20034;-66
2022/07/25 13:11:49;;;;;;;8.77;7.93;;;;;;;;;;4962021;28;20113;-66
2022/07/25 13:14:15;;;;;;;8.52;7.93;;;;;;;;;;4959365;28;20810;-66
2022/07/25 13:16:42;;;;;;;9.13;8.32;;;;;;;;;;4962728;28;20122;-66
2022/07/25 13:19:08;;;;;;;8.93;8.00;;;;;;;;;;4961336;28;20049;-66
2022/07/25 13:21:34;;;;;;;8.77;8.07;;;;;;;;;;4959609;28;20041;-66
2022/07/25 13:24:00;;;;;;;9.40;8.50;;;;;;;;;;4961133;28;20070;-66
2022/07/25 13:26:25;;;;;;;9.05;8.25;;;;;;;;;;4962193;28;20031;-66
2022/07/25 13:28:51;;;;;;;13.25;8.35;;;;;;;;;;4962277;28;20047;-67
2022/07/25 13:31:19;;;;;;;8.55;7.88;;;;;;;;;;4957919;28;20516;-66
2022/07/25 13:33:45;;;;;;;9.68;8.48;;;;;;;;;;4959636;28;20042;-66
2022/07/25 13:36:11;;;;;;;8.93;8.05;;;;;;;;;;4962836;28;20425;-66
2022/07/25 13:38:40;;;;;;;10.98;7.95;;;;;;;;;;4961077;28;20066;-66
2022/07/25 13:41:08;;;;;;;8.52;7.93;;;;;;;;;;4964445;28;20039;-66
2022/07/25 13:43:34;;;;;;;11.05;8.27;;;;;;;;;;4963001;28;20043;-66
2022/07/25 13:46:00;;;;;;;8.75;7.95;;;;;;;;;;4962288;28;20074;-66
2022/07/25 13:48:26;;;;;;;9.25;8.23;;;;;;;;;;4960592;28;20085;-66
2022/07/25 13:50:52;;;;;;;9.15;8.35;;;;;;;;;;4961490;28;20043;-66
2022/07/25 13:53:18;;;;;;;8.95;8.25;;;;;;;;;;4961181;28;20124;-66
2022/07/25 13:55:43;;;;;;;9.48;8.68;;;;;;;;;;4965008;28;20058;-67
2022/07/25 13:58:09;;;;;;;10.02;9.13;;;;;;;;;;4960464;28;20049;-67
2022/07/25 14:00:34;;;;;;;9.50;8.50;;;;;;;;;;4961584;28;20029;-67
2022/07/25 14:03:00;;;;;;;11.30;7.93;;;;;;;;;;4960947;28;20038;-67
2022/07/25 14:05:26;;;;;;;10.60;8.13;;;;;;;;;;4961313;28;20097;-67
2022/07/25 14:07:51;;;;;;;9.05;8.35;;;;;;;;;;4961192;28;20570;-66
2022/07/25 14:10:17;;;;;;;9.68;8.50;;;;;;;;;;4961363;28;20031;-66
2022/07/25 14:12:43;;;;;;;9.77;8.73;;;;;;;;;;4960361;28;20462;-66
2022/07/25 14:15:09;;;;;;;9.82;8.88;;;;;;;;;;4954665;28;20042;-66
2022/07/25 14:17:35;;;;;;;9.45;8.57;;;;;;;;;;4962330;28;20047;-66
2022/07/25 14:20:02;;;;;;;9.77;8.05;;;;;;;;;;4962802;28;20450;-66
2022/07/25 14:22:28;;;;;;;9.18;8.38;;;;;;;;;;4962862;28;20035;-66
2022/07/25 14:24:54;;;;;;;9.45;8.55;;;;;;;;;;4961576;28;20141;-66
2022/07/25 14:27:19;;;;;;;9.35;8.52;;;;;;;;;;4963916;28;20437;-65
2022/07/25 14:29:45;;;;;;;9.27;8.48;;;;;;;;;;4963909;28;20041;-66
2022/07/25 14:32:10;;;;;;;9.50;8.52;;;;;;;;;;4959839;28;20046;-66